createdAt,value
2022-10-11T00:00:41.818Z,0
2022-10-11T00:01:41.872Z,0
2022-10-11T00:02:41.826Z,0
2022-10-11T00:03:41.827Z,0
2022-10-11T00:04:41.819Z,0
2022-10-11T00:05:41.869Z,0.6
2022-10-11T00:06:41.870Z,0.8
2022-10-11T00:07:41.841Z,1
2022-10-11T00:08:41.867Z,0.5
2022-10-11T00:09:41.827Z,0
2022-10-11T00:10:41.873Z,0
2022-10-11T00:11:41.871Z,0
2022-10-11T00:12:41.870Z,0
2022-10-11T00:13:41.852Z,0
2022-10-11T00:14:41.850Z,0
2022-10-11T00:15:41.872Z,0
2022-10-11T00:16:41.863Z,0
2022-10-11T00:17:41.874Z,0
2022-10-11T00:18:41.873Z,0
2022-10-11T00:19:41.869Z,0
2022-10-11T00:20:41.889Z,0
2022-10-11T00:21:41.930Z,0
2022-10-11T00:22:41.895Z,0
2022-10-11T00:23:41.885Z,0
2022-10-11T00:24:41.912Z,0
2022-10-11T00:25:41.880Z,0
2022-10-11T00:26:45.820Z,0
2022-10-11T00:27:41.870Z,0
2022-10-11T00:28:41.980Z,0
2022-10-11T00:29:41.897Z,0
2022-10-11T00:30:41.879Z,0
2022-10-11T00:31:41.892Z,0
2022-10-11T00:32:41.898Z,0
2022-10-11T00:33:41.910Z,0
2022-10-11T00:34:41.897Z,0
2022-10-11T00:35:41.915Z,0
2022-10-11T00:36:41.911Z,0
2022-10-11T00:37:41.894Z,0
2022-10-11T00:38:41.945Z,0
2022-10-11T00:39:41.935Z,0
2022-10-11T00:40:41.934Z,0
2022-10-11T00:41:41.940Z,0
2022-10-11T00:42:41.915Z,0
2022-10-11T00:43:41.921Z,0
2022-10-11T00:44:41.944Z,0
2022-10-11T00:45:41.931Z,0
2022-10-11T00:46:41.940Z,0
2022-10-11T00:47:41.939Z,0
2022-10-11T00:48:41.933Z,0
2022-10-11T00:49:41.929Z,0
2022-10-11T00:50:41.942Z,0
2022-10-11T00:51:41.944Z,0
2022-10-11T00:52:41.955Z,0
2022-10-11T00:53:41.939Z,0
2022-10-11T00:54:41.954Z,0
2022-10-11T00:55:41.941Z,0
2022-10-11T00:56:41.996Z,0
2022-10-11T00:57:41.944Z,0
2022-10-11T00:58:41.945Z,0
2022-10-11T00:59:41.934Z,0
2022-10-11T01:00:41.946Z,0
2022-10-11T01:01:42.033Z,0
2022-10-11T01:02:41.977Z,0
2022-10-11T01:03:41.956Z,0
2022-10-11T01:04:41.975Z,0
2022-10-11T01:05:41.981Z,0
2022-10-11T01:06:41.973Z,0
2022-10-11T01:07:41.961Z,0
2022-10-11T01:08:41.962Z,0
2022-10-11T01:09:41.968Z,0
2022-10-11T01:10:41.972Z,0
2022-10-11T01:11:41.981Z,0
2022-10-11T01:12:41.994Z,0
2022-10-11T01:13:41.982Z,0
2022-10-11T01:14:42.035Z,0
2022-10-11T01:15:42.014Z,0
2022-10-11T01:16:42.024Z,0
2022-10-11T01:17:42.023Z,0
2022-10-11T01:18:42.048Z,0
2022-10-11T01:19:42.028Z,0
2022-10-11T01:20:42.041Z,0
2022-10-11T01:21:42.031Z,0
2022-10-11T01:22:42.015Z,0
2022-10-11T01:23:42.014Z,0
2022-10-11T01:24:42.012Z,0
2022-10-11T01:25:42.013Z,0
2022-10-11T01:26:42.022Z,0
2022-10-11T01:27:42.008Z,0
2022-10-11T01:28:42.098Z,0
2022-10-11T01:29:42.043Z,0
2022-10-11T01:30:42.034Z,0
2022-10-11T01:31:42.050Z,0
2022-10-11T01:32:42.059Z,0
2022-10-11T01:33:42.034Z,0
2022-10-11T01:34:42.041Z,0
2022-10-11T01:35:42.037Z,0
2022-10-11T01:36:42.049Z,0
2022-10-11T01:37:42.042Z,0
2022-10-11T01:38:42.046Z,0
2022-10-11T01:39:42.256Z,0
2022-10-11T01:40:42.035Z,0
2022-10-11T01:41:42.052Z,0
2022-10-11T01:42:42.259Z,0
2022-10-11T01:43:42.060Z,0
2022-10-11T01:44:42.064Z,0
2022-10-11T01:45:42.044Z,0
2022-10-11T01:46:42.059Z,0
2022-10-11T01:47:42.073Z,0
2022-10-11T01:48:42.056Z,0
2022-10-11T01:49:42.096Z,0
2022-10-11T01:50:42.041Z,0
2022-10-11T01:51:46.448Z,0
2022-10-11T01:52:42.074Z,0
2022-10-11T01:53:42.066Z,0
2022-10-11T01:55:04.330Z,0
2022-10-11T01:55:42.058Z,0
2022-10-11T01:56:42.080Z,0
2022-10-11T01:57:42.069Z,0
2022-10-11T01:58:42.057Z,0
2022-10-11T01:59:42.066Z,0
2022-10-11T02:00:42.077Z,0
2022-10-11T02:01:42.166Z,0
2022-10-11T02:02:42.085Z,0
2022-10-11T02:03:42.064Z,0
2022-10-11T02:04:42.069Z,0.8
2022-10-11T02:05:42.064Z,0
2022-10-11T02:06:42.067Z,0
2022-10-11T02:07:42.069Z,0
2022-10-11T02:08:42.080Z,0
2022-10-11T02:09:42.204Z,0
2022-10-11T02:10:42.094Z,0
2022-10-11T02:11:42.094Z,0.5
2022-10-11T02:12:42.109Z,0
2022-10-11T02:13:42.117Z,0
2022-10-11T02:14:42.087Z,0
2022-10-11T02:15:42.099Z,0
2022-10-11T02:16:42.140Z,0
2022-10-11T02:17:42.337Z,0
2022-10-11T02:18:42.116Z,0
2022-10-11T02:19:42.103Z,1
2022-10-11T02:20:42.118Z,1.3
2022-10-11T02:21:42.132Z,0.7
2022-10-11T02:22:42.112Z,0.5
2022-10-11T02:23:42.119Z,0
2022-10-11T02:24:42.106Z,0
2022-10-11T02:25:42.121Z,0
2022-10-11T02:26:42.140Z,0
2022-10-11T02:27:42.145Z,0
2022-10-11T02:28:42.193Z,0
2022-10-11T02:29:42.164Z,0
2022-10-11T02:30:42.160Z,0
2022-10-11T02:31:42.145Z,0
2022-10-11T02:32:42.192Z,0
2022-10-11T02:33:42.165Z,0
2022-10-11T02:34:42.162Z,0
2022-10-11T02:35:42.165Z,0
2022-10-11T02:36:42.171Z,0
2022-10-11T02:37:42.172Z,0
2022-10-11T02:38:42.158Z,0
2022-10-11T02:39:42.178Z,0
2022-10-11T02:40:42.171Z,0
2022-10-11T02:41:42.193Z,0
2022-10-11T02:42:42.180Z,0
2022-10-11T02:43:42.187Z,0
2022-10-11T02:44:42.188Z,0
2022-10-11T02:45:42.181Z,0
2022-10-11T02:46:42.223Z,0
2022-10-11T02:47:42.200Z,0
2022-10-11T02:48:42.249Z,0
2022-10-11T02:49:42.213Z,1
2022-10-11T02:50:42.206Z,0.7
2022-10-11T02:51:42.200Z,0
2022-10-11T02:52:42.247Z,0.8
2022-10-11T02:53:42.300Z,0
2022-10-11T02:54:42.223Z,0
2022-10-11T02:55:42.222Z,0
2022-10-11T02:56:42.253Z,0
2022-10-11T02:57:42.216Z,0
2022-10-11T02:58:42.206Z,0
2022-10-11T02:59:42.217Z,0
2022-10-11T03:00:42.238Z,0
2022-10-11T03:01:42.272Z,0
2022-10-11T03:02:42.230Z,0
2022-10-11T03:03:42.224Z,0
2022-10-11T03:04:42.249Z,0
2022-10-11T03:05:42.236Z,0.5
2022-10-11T03:06:42.238Z,0.8
2022-10-11T03:07:42.235Z,0.6
2022-10-11T03:08:42.247Z,0.5
2022-10-11T03:09:42.244Z,0
2022-10-11T03:10:42.250Z,0
2022-10-11T03:11:42.258Z,0
2022-10-11T03:12:42.249Z,0
2022-10-11T03:13:42.246Z,0
2022-10-11T03:14:42.246Z,0
2022-10-11T03:15:42.264Z,0
2022-10-11T03:16:42.275Z,0.8
2022-10-11T03:17:42.292Z,0
2022-10-11T03:18:42.292Z,0
2022-10-11T03:19:42.294Z,0
2022-10-11T03:20:42.312Z,1.6
2022-10-11T03:21:42.283Z,0.8
2022-10-11T03:22:42.274Z,1.5
2022-10-11T03:23:42.278Z,2.3
2022-10-11T03:24:42.282Z,0
2022-10-11T03:25:42.350Z,0.8
2022-10-11T03:26:42.314Z,0.8
2022-10-11T03:27:42.316Z,0.8
2022-10-11T03:28:42.406Z,0.8
2022-10-11T03:29:42.316Z,0.8
2022-10-11T03:30:42.331Z,1
2022-10-11T03:31:42.332Z,0.6
2022-10-11T03:32:42.353Z,1.2
2022-10-11T03:33:42.349Z,0
2022-10-11T03:34:42.335Z,2.4
2022-10-11T03:35:42.327Z,0.8
2022-10-11T03:36:42.381Z,0.5
2022-10-11T03:37:42.330Z,1.6
2022-10-11T03:38:42.336Z,0.5
2022-10-11T03:39:42.334Z,0
2022-10-11T03:40:42.351Z,0
2022-10-11T03:41:42.380Z,0
2022-10-11T03:42:42.352Z,0.5
2022-10-11T03:43:42.348Z,0.9
2022-10-11T03:44:42.393Z,0
2022-10-11T03:45:42.374Z,0
2022-10-11T03:46:42.374Z,0
2022-10-11T03:47:42.348Z,0.5
2022-10-11T03:48:42.365Z,0
2022-10-11T03:49:43.715Z,0
2022-10-11T03:50:42.352Z,0
2022-10-11T03:51:42.360Z,0
2022-10-11T03:52:42.380Z,0
2022-10-11T03:53:42.389Z,0
2022-10-11T03:54:42.365Z,0
2022-10-11T03:55:42.376Z,0
2022-10-11T03:56:42.394Z,0
2022-10-11T03:57:42.401Z,0
2022-10-11T03:58:42.383Z,0
2022-10-11T03:59:42.373Z,0
2022-10-11T04:00:42.373Z,0
2022-10-11T04:01:42.425Z,0
2022-10-11T04:02:42.390Z,0
2022-10-11T04:03:42.433Z,0
2022-10-11T04:04:42.432Z,0
2022-10-11T04:05:42.410Z,0
2022-10-11T04:06:42.421Z,0
2022-10-11T04:07:42.417Z,0
2022-10-11T04:08:42.445Z,0
2022-10-11T04:09:42.418Z,0
2022-10-11T04:10:42.423Z,0
2022-10-11T04:11:42.423Z,0
2022-10-11T04:12:42.439Z,0
2022-10-11T04:13:42.426Z,0
2022-10-11T04:14:42.438Z,0
2022-10-11T04:15:42.437Z,0
2022-10-11T04:16:42.464Z,0
2022-10-11T04:17:42.430Z,0
2022-10-11T04:18:42.510Z,0
2022-10-11T04:19:42.431Z,0
2022-10-11T04:20:42.447Z,0
2022-10-11T04:21:42.477Z,0
2022-10-11T04:22:42.466Z,0
2022-10-11T04:23:42.446Z,0
2022-10-11T04:24:42.476Z,0
2022-10-11T04:25:42.468Z,0
2022-10-11T04:26:42.482Z,0
2022-10-11T04:27:42.478Z,0
2022-10-11T04:28:42.550Z,0
2022-10-11T04:29:42.476Z,0
2022-10-11T04:30:42.479Z,0
2022-10-11T04:31:42.520Z,0
2022-10-11T04:32:42.477Z,0
2022-10-11T04:33:42.501Z,0
2022-10-11T04:34:42.485Z,0
2022-10-11T04:35:42.514Z,0
2022-10-11T04:36:45.282Z,0
2022-10-11T04:37:42.479Z,0
2022-10-11T04:38:42.484Z,0
2022-10-11T04:39:42.512Z,0
2022-10-11T04:40:42.514Z,0
2022-10-11T04:41:42.507Z,0
2022-10-11T04:42:42.510Z,0
2022-10-11T04:43:42.494Z,0
2022-10-11T04:44:42.516Z,0
2022-10-11T04:45:42.506Z,0
2022-10-11T04:46:42.507Z,0
2022-10-11T04:47:42.509Z,0
2022-10-11T04:48:42.524Z,0
2022-10-11T04:49:42.550Z,0
2022-10-11T04:50:42.532Z,0
2022-10-11T04:51:42.534Z,0
2022-10-11T04:52:42.527Z,0
2022-10-11T04:53:42.531Z,0
2022-10-11T04:54:42.623Z,0
2022-10-11T04:55:42.531Z,0
2022-10-11T04:56:42.576Z,0
2022-10-11T04:57:42.535Z,0
2022-10-11T04:58:42.543Z,0
2022-10-11T04:59:45.470Z,0
2022-10-11T05:00:42.544Z,0
2022-10-11T05:01:42.595Z,0
2022-10-11T05:02:42.547Z,0
2022-10-11T05:03:42.544Z,0
2022-10-11T05:04:42.550Z,0
2022-10-11T05:05:42.562Z,0
2022-10-11T05:06:42.546Z,0
2022-10-11T05:07:42.555Z,0
2022-10-11T05:08:42.558Z,0
2022-10-11T05:09:42.571Z,0
2022-10-11T05:10:42.591Z,0
2022-10-11T05:11:42.709Z,0
2022-10-11T05:12:42.593Z,0
2022-10-11T05:13:42.581Z,0
2022-10-11T05:14:42.584Z,0
2022-10-11T05:15:42.610Z,0
2022-10-11T05:16:42.585Z,0
2022-10-11T05:17:42.585Z,0
2022-10-11T05:18:42.592Z,0
2022-10-11T05:19:42.592Z,0
2022-10-11T05:20:42.604Z,0
2022-10-11T05:21:42.603Z,0
2022-10-11T05:22:42.618Z,0
2022-10-11T05:23:42.597Z,0
2022-10-11T05:24:42.606Z,0
2022-10-11T05:25:42.619Z,0
2022-10-11T05:26:42.617Z,0
2022-10-11T05:27:42.620Z,0
2022-10-11T05:28:42.770Z,0.6
2022-10-11T05:29:42.649Z,0
2022-10-11T05:30:42.633Z,0.6
2022-10-11T05:31:42.617Z,0
2022-10-11T05:32:42.622Z,0
2022-10-11T05:33:42.614Z,0.5
2022-10-11T05:34:42.622Z,0
2022-10-11T05:35:42.635Z,0
2022-10-11T05:36:42.621Z,0
2022-10-11T05:37:42.617Z,0.6
2022-10-11T05:38:42.636Z,0.5
2022-10-11T05:39:42.622Z,1.3
2022-10-11T05:40:42.639Z,0.9
2022-10-11T05:41:42.649Z,0.8
2022-10-11T05:42:42.639Z,0.8
2022-10-11T05:43:42.636Z,0
2022-10-11T05:44:42.674Z,0.6
2022-10-11T05:45:42.661Z,0.6
2022-10-11T05:46:42.646Z,0.8
2022-10-11T05:47:42.654Z,0.5
2022-10-11T05:48:42.639Z,0.8
2022-10-11T05:49:42.651Z,0.8
2022-10-11T05:50:42.663Z,0
2022-10-11T05:51:42.665Z,0
2022-10-11T05:52:42.655Z,0.6
2022-10-11T05:53:42.655Z,0.8
2022-10-11T05:54:42.652Z,0.6
2022-10-11T05:55:42.672Z,1.1
2022-10-11T05:56:42.668Z,0.8
2022-10-11T05:57:42.655Z,0.9
2022-10-11T05:58:42.659Z,0.5
2022-10-11T05:59:42.659Z,0
2022-10-11T06:00:42.693Z,0.6
2022-10-11T06:01:42.766Z,0.8
2022-10-11T06:02:42.657Z,0.8
2022-10-11T06:03:42.665Z,0.8
2022-10-11T06:04:42.701Z,1
2022-10-11T06:05:42.694Z,0
2022-10-11T06:06:42.697Z,0
2022-10-11T06:07:42.693Z,0.9
2022-10-11T06:08:42.691Z,0.5
2022-10-11T06:09:42.675Z,0
2022-10-11T06:10:42.722Z,0.9
2022-10-11T06:11:42.702Z,0
2022-10-11T06:12:42.684Z,0
2022-10-11T06:13:42.714Z,0.7
2022-10-11T06:14:42.691Z,0
2022-10-11T06:15:42.698Z,0.8
2022-10-11T06:16:42.716Z,0.8
2022-10-11T06:17:42.694Z,0
2022-10-11T06:18:42.686Z,0.5
2022-10-11T06:19:42.690Z,0
2022-10-11T06:20:42.696Z,0.5
2022-10-11T06:21:42.695Z,0
2022-10-11T06:22:42.727Z,0
2022-10-11T06:23:42.735Z,0
2022-10-11T06:24:42.718Z,0
2022-10-11T06:25:42.716Z,0
2022-10-11T06:26:42.724Z,0
2022-10-11T06:27:42.719Z,0
2022-10-11T06:28:42.833Z,0
2022-10-11T06:29:42.724Z,0
2022-10-11T06:30:42.731Z,0
2022-10-11T06:31:42.733Z,0.6
2022-10-11T06:32:42.746Z,0
2022-10-11T06:33:42.710Z,0
2022-10-11T06:34:42.720Z,0
2022-10-11T06:35:42.727Z,0
2022-10-11T06:36:42.736Z,0
2022-10-11T06:37:42.715Z,0
2022-10-11T06:38:45.112Z,0.5
2022-10-11T06:39:42.739Z,0
2022-10-11T06:40:42.757Z,0.5
2022-10-11T06:41:42.753Z,0.7
2022-10-11T06:42:42.737Z,1.5
2022-10-11T06:43:42.738Z,1.1
2022-10-11T06:44:42.734Z,0
2022-10-11T06:45:42.742Z,0.9
2022-10-11T06:46:42.747Z,0
2022-10-11T06:47:42.745Z,0.7
2022-10-11T06:48:42.758Z,0.9
2022-10-11T06:49:42.739Z,1.6
2022-10-11T06:50:58.933Z,0
2022-10-11T06:51:42.733Z,1.1
2022-10-11T06:52:42.747Z,1.1
2022-10-11T06:53:42.752Z,0.7
2022-10-11T06:54:44.976Z,0.9
2022-10-11T06:55:42.835Z,1.8
2022-10-11T06:56:42.782Z,1.1
2022-10-11T06:57:42.765Z,0
2022-10-11T06:58:42.771Z,0.8
2022-10-11T06:59:42.787Z,1
2022-10-11T07:00:42.808Z,1
2022-10-11T07:01:42.798Z,0.6
2022-10-11T07:02:42.779Z,1
2022-10-11T07:03:42.797Z,0.5
2022-10-11T07:04:42.827Z,0
2022-10-11T07:05:42.804Z,0.9
2022-10-11T07:06:42.785Z,0
2022-10-11T07:07:42.788Z,1.1
2022-10-11T07:08:42.812Z,0
2022-10-11T07:09:42.815Z,0.8
2022-10-11T07:10:42.818Z,0.9
2022-10-11T07:11:42.815Z,1
2022-10-11T07:12:42.818Z,0.8
2022-10-11T07:13:42.812Z,0.5
2022-10-11T07:14:42.811Z,2.4
2022-10-11T07:15:42.820Z,1.5
2022-10-11T07:16:42.802Z,1
2022-10-11T07:17:42.791Z,2.2
2022-10-11T07:18:42.891Z,1.2
2022-10-11T07:19:42.843Z,0.5
2022-10-11T07:20:42.878Z,0
2022-10-11T07:21:42.812Z,1.1
2022-10-11T07:22:42.831Z,0.8
2022-10-11T07:23:42.825Z,1.1
2022-10-11T07:24:42.841Z,1.6
2022-10-11T07:25:42.836Z,1.3
2022-10-11T07:26:42.845Z,0.8
2022-10-11T07:27:42.826Z,0.6
2022-10-11T07:28:42.901Z,0.9
2022-10-11T07:29:42.838Z,0.7
2022-10-11T07:30:42.836Z,2.4
2022-10-11T07:31:42.859Z,2.1
2022-10-11T07:32:42.885Z,2.5
2022-10-11T07:33:42.845Z,2.4
2022-10-11T07:34:42.879Z,0.8
2022-10-11T07:35:47.442Z,1.1
2022-10-11T07:36:42.879Z,1.8
2022-10-11T07:37:42.839Z,1
2022-10-11T07:38:42.887Z,2.1
2022-10-11T07:39:42.875Z,1.2
2022-10-11T07:40:42.849Z,0.6
2022-10-11T07:41:45.795Z,0.5
2022-10-11T07:42:42.852Z,1.9
2022-10-11T07:43:42.866Z,1.2
2022-10-11T07:44:42.858Z,1
2022-10-11T07:45:42.872Z,1.5
2022-10-11T07:46:42.854Z,1.6
2022-10-11T07:47:42.858Z,2.4
2022-10-11T07:48:42.857Z,1.1
2022-10-11T07:49:42.881Z,2.1
2022-10-11T07:50:42.879Z,0.8
2022-10-11T07:51:42.855Z,2.1
2022-10-11T07:52:42.909Z,0.8
2022-10-11T07:53:42.895Z,0.8
2022-10-11T07:54:42.890Z,0.5
2022-10-11T07:55:42.891Z,1.1
2022-10-11T07:56:42.863Z,1.9
2022-10-11T07:57:42.872Z,2.4
2022-10-11T07:58:42.877Z,0.9
2022-10-11T07:59:45.678Z,0.6
2022-10-11T08:00:42.901Z,0.8
2022-10-11T08:01:42.916Z,1.6
2022-10-11T08:02:42.898Z,1
2022-10-11T08:03:42.910Z,1.1
2022-10-11T08:04:42.918Z,0.5
2022-10-11T08:05:42.901Z,0
2022-10-11T08:06:42.901Z,0.5
2022-10-11T08:07:42.920Z,0
2022-10-11T08:08:42.942Z,0.8
2022-10-11T08:09:42.929Z,0.7
2022-10-11T08:10:42.918Z,0.6
2022-10-11T08:11:42.942Z,2.4
2022-10-11T08:12:42.918Z,2.4
2022-10-11T08:13:42.932Z,2.4
2022-10-11T08:14:42.933Z,1.9
2022-10-11T08:15:42.936Z,1.8
2022-10-11T08:16:42.923Z,2.4
2022-10-11T08:17:42.924Z,2.2
2022-10-11T08:18:42.945Z,2.4
2022-10-11T08:19:42.977Z,1.5
2022-10-11T08:20:42.912Z,0
2022-10-11T08:21:42.973Z,0.6
2022-10-11T08:22:42.923Z,1.9
2022-10-11T08:23:42.925Z,2.4
2022-10-11T08:24:42.967Z,0.9
2022-10-11T08:25:42.921Z,0.8
2022-10-11T08:26:42.924Z,0.8
2022-10-11T08:27:42.923Z,0.6
2022-10-11T08:28:43.035Z,2.4
2022-10-11T08:29:42.960Z,0.9
2022-10-11T08:30:42.951Z,0
2022-10-11T08:31:42.946Z,0
2022-10-11T08:32:42.939Z,0
2022-10-11T08:33:43.051Z,1
2022-10-11T08:34:42.985Z,0.8
2022-10-11T08:35:42.966Z,2.5
2022-10-11T08:36:42.949Z,1.3
2022-10-11T08:37:43.036Z,1.8
2022-10-11T08:38:42.962Z,2.4
2022-10-11T08:39:42.993Z,2.2
2022-10-11T08:40:42.990Z,1.2
2022-10-11T08:41:43.014Z,1.2
2022-10-11T08:42:42.983Z,2.1
2022-10-11T08:43:42.999Z,1.6
2022-10-11T08:45:42.992Z,1.1
2022-10-11T08:46:42.996Z,0.8
2022-10-11T08:47:42.985Z,0.5
2022-10-11T08:48:43.011Z,0.9
2022-10-11T08:49:42.992Z,0.6
2022-10-11T08:50:43.025Z,1
2022-10-11T08:51:43.023Z,1.1
2022-10-11T08:52:43.068Z,0.8
2022-10-11T08:53:43.053Z,0
2022-10-11T08:54:43.076Z,1.1
2022-10-11T08:55:43.047Z,2.2
2022-10-11T08:56:43.081Z,0.9
2022-10-11T08:57:43.065Z,0.8
2022-10-11T08:58:43.054Z,1.2
2022-10-11T08:59:43.059Z,1
2022-10-11T09:00:43.076Z,1.1
2022-10-11T09:01:43.135Z,1
2022-10-11T09:03:06.753Z,0.7
2022-10-11T09:03:43.069Z,0.7
2022-10-11T09:04:43.071Z,0.5
2022-10-11T09:05:43.089Z,0.6
2022-10-11T09:06:43.061Z,0.9
2022-10-11T09:07:43.062Z,0.7
2022-10-11T09:08:43.073Z,1.1
2022-10-11T09:09:43.070Z,0.5
2022-10-11T09:10:43.060Z,0
2022-10-11T09:11:43.060Z,0
2022-10-11T09:12:43.085Z,0
2022-10-11T09:13:43.101Z,0
2022-10-11T09:14:43.083Z,0.7
2022-10-11T09:15:43.083Z,0
2022-10-11T09:16:43.072Z,1.2
2022-10-11T09:17:43.079Z,0.5
2022-10-11T09:18:43.104Z,0.8
2022-10-11T09:19:43.103Z,2.4
2022-10-11T09:20:43.097Z,2.7
2022-10-11T09:21:43.086Z,2.5
2022-10-11T09:22:43.098Z,2.5
2022-10-11T09:23:43.087Z,1.3
2022-10-11T09:24:43.112Z,2.1
2022-10-11T09:25:43.110Z,1.1
2022-10-11T09:26:43.092Z,2.4
2022-10-11T09:28:01.617Z,1.3
2022-10-11T09:28:43.171Z,1.9
2022-10-11T09:29:43.102Z,2.5
2022-10-11T09:30:43.166Z,1.6
2022-10-11T09:31:43.133Z,2.4
2022-10-11T09:32:43.141Z,2.9
2022-10-11T09:33:43.150Z,2.4
2022-10-11T09:34:43.128Z,2.2
2022-10-11T09:35:43.121Z,2.4
2022-10-11T09:36:43.161Z,2.5
2022-10-11T09:37:43.156Z,2.5
2022-10-11T09:38:43.158Z,2.5
2022-10-11T09:39:43.159Z,2.4
2022-10-11T09:40:43.146Z,1
2022-10-11T09:41:43.138Z,2.4
2022-10-11T09:42:43.169Z,2.4
2022-10-11T09:43:43.173Z,2.5
2022-10-11T09:44:43.194Z,1.9
2022-10-11T09:45:46.950Z,2.6
2022-10-11T09:46:43.145Z,1.6
2022-10-11T09:47:43.158Z,2.4
2022-10-11T09:48:43.187Z,1.8
2022-10-11T09:49:43.164Z,1.8
2022-10-11T09:50:43.169Z,2.2
2022-10-11T09:51:43.199Z,2.4
2022-10-11T09:52:43.178Z,1.3
2022-10-11T09:53:43.171Z,1.1
2022-10-11T09:54:43.223Z,1.1
2022-10-11T09:55:43.199Z,0.5
2022-10-11T09:56:43.200Z,0
2022-10-11T09:57:43.190Z,0
2022-10-11T09:58:43.183Z,1
2022-10-11T09:59:43.200Z,0.7
2022-10-11T10:00:43.231Z,0
2022-10-11T10:01:43.242Z,0
2022-10-11T10:02:43.298Z,1.3
2022-10-11T10:03:43.212Z,1.8
2022-10-11T10:04:43.220Z,1.2
2022-10-11T10:05:43.200Z,0.9
2022-10-11T10:06:43.231Z,0.8
2022-10-11T10:07:43.231Z,1
2022-10-11T10:08:43.234Z,0.6
2022-10-11T10:09:43.236Z,2.2
2022-10-11T10:10:43.231Z,0
2022-10-11T10:11:43.227Z,1.2
2022-10-11T10:12:43.220Z,1.1
2022-10-11T10:13:43.237Z,1.5
2022-10-11T10:14:43.309Z,0.8
2022-10-11T10:15:43.237Z,2.2
2022-10-11T10:16:43.247Z,0.8
2022-10-11T10:17:43.223Z,2.4
2022-10-11T10:18:43.225Z,1.6
2022-10-11T10:19:45.158Z,1.1
2022-10-11T10:20:43.242Z,2.1
2022-10-11T10:21:43.255Z,2.4
2022-10-11T10:22:43.224Z,1
2022-10-11T10:23:43.345Z,2.4
2022-10-11T10:24:43.262Z,1.2
2022-10-11T10:25:43.830Z,0.9
2022-10-11T10:26:43.255Z,1.3
2022-10-11T10:27:43.249Z,0.8
2022-10-11T10:28:43.281Z,1.6
2022-10-11T10:29:43.259Z,0
2022-10-11T10:30:43.258Z,0.8
2022-10-11T10:32:09.073Z,0
2022-10-11T10:32:47.612Z,0.5
2022-10-11T10:33:43.260Z,0
2022-10-11T10:34:43.271Z,1
2022-10-11T10:35:43.272Z,0.7
2022-10-11T10:36:43.252Z,0
2022-10-11T10:37:43.254Z,0
2022-10-11T10:38:43.267Z,2.5
2022-10-11T10:39:43.279Z,1
2022-10-11T10:40:43.271Z,2.4
2022-10-11T10:41:43.306Z,2.6
2022-10-11T10:42:43.296Z,2.4
2022-10-11T10:43:43.295Z,3.1
2022-10-11T10:44:43.312Z,2.4
2022-10-11T10:45:43.306Z,1.6
2022-10-11T10:46:46.427Z,0
2022-10-11T10:47:43.300Z,2.4
2022-10-11T10:49:18.993Z,0.7
2022-10-11T10:49:58.808Z,1.8
2022-10-11T10:50:43.310Z,1.3
2022-10-11T10:51:43.319Z,2.1
2022-10-11T10:52:43.301Z,1
2022-10-11T10:53:43.324Z,1.2
2022-10-11T10:54:43.375Z,2.4
2022-10-11T10:55:43.310Z,2.4
2022-10-11T10:56:43.324Z,1.6
2022-10-11T10:57:43.313Z,2.4
2022-10-11T10:58:43.336Z,1.5
2022-10-11T10:59:43.344Z,0.8
2022-10-11T11:00:43.333Z,0.6
2022-10-11T11:01:43.506Z,0.8
2022-10-11T11:02:43.403Z,0.8
2022-10-11T11:03:43.324Z,0.8
2022-10-11T11:04:43.361Z,0
2022-10-11T11:05:43.330Z,0.8
2022-10-11T11:06:43.345Z,0.9
2022-10-11T11:07:43.370Z,1.9
2022-10-11T11:08:43.364Z,1.9
2022-10-11T11:09:43.388Z,0.6
2022-10-11T11:10:43.358Z,0.9
2022-10-11T11:11:43.357Z,1.9
2022-10-11T11:12:43.353Z,1.1
2022-10-11T11:13:43.353Z,1.1
2022-10-11T11:14:43.396Z,1
2022-10-11T11:15:43.381Z,0.9
2022-10-11T11:16:43.386Z,1
2022-10-11T11:17:43.384Z,1.9
2022-10-11T11:18:43.393Z,0.9
2022-10-11T11:19:43.394Z,1
2022-10-11T11:20:43.394Z,0.8
2022-10-11T11:21:43.376Z,0.5
2022-10-11T11:22:43.378Z,1.1
2022-10-11T11:23:43.372Z,0.9
2022-10-11T11:24:43.390Z,0
2022-10-11T11:25:44.957Z,1
2022-10-11T11:26:44.524Z,0
2022-10-11T11:27:43.377Z,1.5
2022-10-11T11:28:43.411Z,2.1
2022-10-11T11:29:43.393Z,0
2022-10-11T11:30:43.395Z,2.4
2022-10-11T11:31:43.385Z,0.8
2022-10-11T11:32:45.657Z,1.5
2022-10-11T11:33:47.899Z,1
2022-10-11T11:34:43.420Z,0.9
2022-10-11T11:35:43.442Z,0.8
2022-10-11T11:36:43.459Z,0
2022-10-11T11:37:43.417Z,0
2022-10-11T11:38:43.422Z,0.5
2022-10-11T11:39:43.439Z,0
2022-10-11T11:40:43.426Z,1.1
2022-10-11T11:41:43.421Z,2.2
2022-10-11T11:42:43.420Z,2.2
2022-10-11T11:43:43.434Z,2.4
2022-10-11T11:44:43.436Z,1
2022-10-11T11:45:43.428Z,2.4
2022-10-11T11:46:43.437Z,1.2
2022-10-11T11:47:43.448Z,2.5
2022-10-11T11:48:43.450Z,2.4
2022-10-11T11:50:43.454Z,2.4
2022-10-11T11:51:43.459Z,1.6
2022-10-11T11:52:43.494Z,2.4
2022-10-11T11:53:43.480Z,2.2
2022-10-11T11:54:43.469Z,1.1
2022-10-11T11:55:43.461Z,2.5
2022-10-11T11:56:43.478Z,2.4
2022-10-11T11:57:43.483Z,2.4
2022-10-11T11:58:43.474Z,2.4
2022-10-11T11:59:43.485Z,2.4
2022-10-11T12:00:43.478Z,2.5
2022-10-11T12:01:43.519Z,2.4
2022-10-11T12:02:43.495Z,1.8
2022-10-11T12:03:43.520Z,1.6
2022-10-11T12:04:43.502Z,1.9
2022-10-11T12:05:43.496Z,2.7
2022-10-11T12:06:58.083Z,2.7
2022-10-11T12:07:43.513Z,2.4
2022-10-11T12:08:43.531Z,1.9
2022-10-11T12:09:43.523Z,1.8
2022-10-11T12:10:43.502Z,2.4
2022-10-11T12:11:43.511Z,2.2
2022-10-11T12:12:43.504Z,0.6
2022-10-11T12:13:43.499Z,2.4
2022-10-11T12:14:43.517Z,2.4
2022-10-11T12:15:43.503Z,2.2
2022-10-11T12:16:43.525Z,2.5
2022-10-11T12:17:43.518Z,0.8
2022-10-11T12:18:43.528Z,0
2022-10-11T12:19:43.530Z,0.8
2022-10-11T12:20:43.522Z,0.5
2022-10-11T12:21:43.526Z,0.7
2022-10-11T12:22:43.539Z,0
2022-10-11T12:23:43.747Z,0.6
2022-10-11T12:24:43.579Z,0
2022-10-11T12:25:43.533Z,0.7
2022-10-11T12:26:43.536Z,0.6
2022-10-11T12:27:43.546Z,0.9
2022-10-11T12:28:43.718Z,0.7
2022-10-11T12:29:43.584Z,0.5
2022-10-11T12:30:43.565Z,1
2022-10-11T12:31:46.071Z,0
2022-10-11T12:32:43.588Z,2.4
2022-10-11T12:33:43.576Z,1.5
2022-10-11T12:34:43.565Z,0
2022-10-11T12:35:43.589Z,2.2
2022-10-11T12:36:43.564Z,2.4
2022-10-11T12:37:43.568Z,1.5
2022-10-11T12:38:43.604Z,2.4
2022-10-11T12:39:43.584Z,1.1
2022-10-11T12:40:43.595Z,1.1
2022-10-11T12:41:43.593Z,0.8
2022-10-11T12:42:43.611Z,0.6
2022-10-11T12:43:43.587Z,1.8
2022-10-11T12:44:43.601Z,0.8
2022-10-11T12:45:43.600Z,1.6
2022-10-11T12:46:43.614Z,1.1
2022-10-11T12:47:43.594Z,0
2022-10-11T12:48:43.607Z,0
2022-10-11T12:49:43.599Z,3
2022-10-11T12:50:43.604Z,1.8
2022-10-11T12:51:43.591Z,1.6
2022-10-11T12:52:43.614Z,2.5
2022-10-11T12:53:43.620Z,1
2022-10-11T12:54:43.595Z,1.9
2022-10-11T12:55:43.612Z,1.5
2022-10-11T12:56:43.634Z,0
2022-10-11T12:57:46.237Z,0
2022-10-11T12:58:43.616Z,0
2022-10-11T12:59:43.629Z,0.7
2022-10-11T13:00:43.657Z,0.6
2022-10-11T13:01:43.697Z,1.1
2022-10-11T13:02:43.664Z,0.9
2022-10-11T13:03:43.660Z,0
2022-10-11T13:04:43.662Z,1.2
2022-10-11T13:05:45.108Z,0.6
2022-10-11T13:06:43.656Z,1.1
2022-10-11T13:07:43.652Z,2
2022-10-11T13:08:43.666Z,0
2022-10-11T13:09:48.195Z,1
2022-10-11T13:10:43.677Z,0
2022-10-11T13:11:43.665Z,0.8
2022-10-11T13:12:43.682Z,1.1
2022-10-11T13:13:43.668Z,0
2022-10-11T13:14:43.668Z,1.1
2022-10-11T13:15:43.673Z,0.7
2022-10-11T13:16:43.700Z,1.8
2022-10-11T13:17:43.683Z,0
2022-10-11T13:18:43.681Z,0.6
2022-10-11T13:19:43.698Z,1.9
2022-10-11T13:20:43.689Z,0.6
2022-10-11T13:21:43.684Z,0.5
2022-10-11T13:22:43.693Z,0.5
2022-10-11T13:23:43.688Z,2.4
2022-10-11T13:24:43.695Z,2.4
2022-10-11T13:25:43.726Z,1
2022-10-11T13:26:43.705Z,1.7
2022-10-11T13:27:43.698Z,0.9
2022-10-11T13:28:43.798Z,1.8
2022-10-11T13:29:43.703Z,2.1
2022-10-11T13:30:43.716Z,2.4
2022-10-11T13:31:43.696Z,0.8
2022-10-11T13:32:43.701Z,0
2022-10-11T13:33:43.714Z,0.8
2022-10-11T13:34:43.765Z,0
2022-10-11T13:35:43.710Z,0.5
2022-10-11T13:36:43.718Z,0.8
2022-10-11T13:37:43.715Z,2.2
2022-10-11T13:38:43.723Z,1.6
2022-10-11T13:39:43.735Z,2.5
2022-10-11T13:40:45.337Z,1.8
2022-10-11T13:41:43.718Z,2.4
2022-10-11T13:42:43.748Z,1.3
2022-10-11T13:43:43.729Z,0.8
2022-10-11T13:44:43.771Z,1.6
2022-10-11T13:45:43.733Z,1.2
2022-10-11T13:46:43.765Z,2.4
2022-10-11T13:47:43.767Z,2.5
2022-10-11T13:48:43.932Z,1.7
2022-10-11T13:49:43.760Z,0
2022-10-11T13:50:43.750Z,0.8
2022-10-11T13:51:43.752Z,0.8
2022-10-11T13:52:43.764Z,1.9
2022-10-11T13:53:43.753Z,0
2022-10-11T13:54:43.769Z,0.9
2022-10-11T13:55:43.777Z,0
2022-10-11T13:56:43.760Z,0.8
2022-10-11T13:57:43.783Z,0
2022-10-11T13:58:43.782Z,0.6
2022-10-11T13:59:43.778Z,2.4
2022-10-11T14:00:43.824Z,0.8
2022-10-11T14:01:43.824Z,0
2022-10-11T14:02:43.781Z,0
2022-10-11T14:03:43.805Z,0
2022-10-11T14:04:43.807Z,1.1
2022-10-11T14:05:43.790Z,1.9
2022-10-11T14:06:43.781Z,0
2022-10-11T14:07:43.807Z,0
2022-10-11T14:08:43.795Z,0
2022-10-11T14:09:43.804Z,0
2022-10-11T14:10:43.791Z,0.7
2022-10-11T14:11:43.784Z,0
2022-10-11T14:12:43.793Z,0
2022-10-11T14:13:43.785Z,0.5
2022-10-11T14:14:43.821Z,0
2022-10-11T14:15:43.797Z,0
2022-10-11T14:16:44.000Z,0
2022-10-11T14:17:43.793Z,0